Time;durP1;ratioP1;P1;durP2;ratioP2;P2;SDS_P1;SDS_P2;PMS_P1;PMS_P2;Temp;Humidity;BMP_temperature;BMP_pressure;BME280_temperature;BME280_humidity;BME280_pressure;Samples;Min_cycle;Max_cycle;Signal;HPM_P1;HPM_P2
2021/12/05 00:23:23;;;;;;;35.23;22.07;;;;;;;0.12;62.11;100155.27;1772774;78;21146;-69
2021/12/05 00:25:50;;;;;;;34.60;21.30;;;;;;;0.12;62.11;100155.27;1788902;78;21579;-67
2021/12/05 00:31:15;;;;;;;33.10;20.60;;;;;;;0.12;61.84;100157.89;1792039;78;20944;-68
2021/12/05 00:39:24;;;;;;;33.75;21.02;;;;;;;0.15;62.13;100143.56;1785666;78;21118;-68
2021/12/05 00:49:28;;;;;;;41.90;22.93;;;;;;;0.16;61.98;100149.92;1760552;80;21956;-68
2021/12/05 01:02:47;;;;;;;49.30;24.98;;;;;;;-0.25;61.79;100147.38;1765041;78;21118;-67
2021/12/05 01:05:50;;;;;;;50.58;25.57;;;;;;;-0.23;61.78;100150.63;1790807;78;21135;-68
2021/12/05 01:13:30;;;;;;;50.95;26.40;;;;;;;-0.25;61.82;100161.31;1729251;83;21552;-69
2021/12/05 01:15:44;;;;;;;49.30;25.92;;;;;;;-0.22;61.76;100165.87;1753541;80;21217;-68
2021/12/05 01:18:16;;;;;;;43.28;23.07;;;;;;;-0.22;61.77;100165.87;1791996;78;21197;-67
2021/12/05 01:20:46;;;;;;;44.42;22.85;;;;;;;-0.25;61.79;100160.00;1791398;78;21027;-68
2021/12/05 01:23:42;;;;;;;36.28;21.52;;;;;;;-0.24;61.80;100169.48;1791656;78;21023;-67
2021/12/05 01:26:16;;;;;;;36.38;21.10;;;;;;;-0.22;61.81;100164.56;1791025;79;20931;-68
2021/12/05 01:31:23;;;;;;;36.60;20.60;;;;;;;-0.20;61.83;100174.34;1790793;78;20983;-68
2021/12/05 01:34:08;;;;;;;34.73;20.40;;;;;;;-0.21;61.88;100179.30;1792135;79;21596;-68
2021/12/05 01:36:50;;;;;;;35.95;20.82;;;;;;;-0.22;61.97;100167.98;1762034;80;20998;-67
2021/12/05 01:42:17;;;;;;;33.18;19.70;;;;;;;-0.18;62.06;100165.28;1732007;80;21159;-68
2021/12/05 01:51:58;;;;;;;32.60;18.42;;;;;;;-0.14;62.37;100173.56;1791702;78;20943;-68
2021/12/05 02:07:52;;;;;;;29.48;17.87;;;;;;;0.01;62.59;100181.31;1687687;84;21871;-67
2021/12/05 02:38:07;;;;;;;33.95;20.37;;;;;;;0.03;62.58;100151.20;1659795;86;21011;-68
2021/12/05 02:43:10;;;;;;;34.35;19.35;;;;;;;0.04;62.37;100155.47;1642612;87;21498;-68
2021/12/05 02:45:39;;;;;;;30.32;19.27;;;;;;;0.02;62.30;100162.72;1642605;86;21026;-67
2021/12/05 02:48:09;;;;;;;34.50;19.67;;;;;;;0.01;62.29;100158.48;1642453;86;21981;-68
2021/12/05 02:50:37;;;;;;;32.78;19.60;;;;;;;-0.01;62.28;100148.16;1642323;86;21501;-67
2021/12/05 02:53:19;;;;;;;33.75;18.95;;;;;;;-0.01;62.28;100148.16;1642496;87;21117;-68
2021/12/05 02:55:39;;;;;;;31.40;19.15;;;;;;;-0.01;62.22;100155.23;1685710;85;20991;-68
2021/12/05 02:58:28;;;;;;;31.25;19.50;;;;;;;-0.01;62.22;100156.55;1671407;85;20990;-69
2021/12/05 03:03:22;;;;;;;29.80;18.15;;;;;;;-0.04;62.14;100138.56;1687480;85;21055;-67
2021/12/05 03:06:12;;;;;;;31.75;19.05;;;;;;;-0.04;62.14;100138.56;1670468;85;21040;-68
2021/12/05 03:08:34;;;;;;;29.37;17.67;;;;;;;-0.06;62.31;100144.02;1670363;85;21024;-68
2021/12/05 03:11:02;;;;;;;33.45;19.12;;;;;;;-0.10;62.37;100136.24;1671176;85;21079;-68
2021/12/05 03:13:29;;;;;;;33.80;19.42;;;;;;;-0.11;62.40;100130.66;1671062;85;21890;-68
2021/12/05 03:15:58;;;;;;;31.80;19.02;;;;;;;-0.10;62.25;100140.18;1671090;85;21041;-68
2021/12/05 03:18:25;;;;;;;32.75;20.15;;;;;;;-0.10;62.25;100140.18;1671056;85;21079;-68
2021/12/05 03:21:04;;;;;;;31.50;19.05;;;;;;;-0.11;62.33;100128.55;1670780;85;20988;-68
2021/12/05 03:23:32;;;;;;;32.28;19.30;;;;;;;-0.16;62.28;100133.59;1670899;85;21023;-67
2021/12/05 03:25:58;;;;;;;32.53;19.20;;;;;;;-0.18;62.25;100144.28;1671329;85;21159;-68
2021/12/05 03:28:26;;;;;;;32.38;19.52;;;;;;;-0.18;62.18;100132.47;1671028;85;21067;-68
2021/12/05 03:30:53;;;;;;;33.42;19.57;;;;;;;-0.19;62.14;100129.55;1671260;85;20979;-68
2021/12/05 03:33:20;;;;;;;32.60;19.12;;;;;;;-0.23;62.09;100124.39;1671275;85;21144;-69
2021/12/05 03:35:47;;;;;;;31.90;19.30;;;;;;;-0.27;61.97;100125.25;1671095;85;21058;-68
2021/12/05 03:38:14;;;;;;;33.28;19.87;;;;;;;-0.30;61.89;100117.77;1671203;85;21174;-68
2021/12/05 03:40:44;;;;;;;28.30;19.27;;;;;;;-0.35;61.81;100118.88;1671229;85;21082;-67
2021/12/05 03:43:15;;;;;;;29.32;18.30;;;;;;;-0.40;61.75;100121.27;1671289;85;21067;-69
2021/12/05 03:45:45;;;;;;;31.15;19.10;;;;;;;-0.42;61.75;100123.81;1671629;85;20999;-68
2021/12/05 03:48:13;;;;;;;32.25;18.40;;;;;;;-0.43;61.75;100112.48;1671181;85;20999;-69
2021/12/05 03:50:40;;;;;;;30.05;19.87;;;;;;;-0.46;61.71;100114.20;1671261;85;21157;-69
2021/12/05 03:53:07;;;;;;;31.37;18.70;;;;;;;-0.51;61.73;100113.47;1671140;85;21597;-68
2021/12/05 03:55:36;;;;;;;33.33;19.80;;;;;;;-0.51;61.75;100115.28;1671439;85;21061;-68
2021/12/05 03:58:03;;;;;;;30.60;18.32;;;;;;;-0.56;61.77;100104.55;1671148;85;20990;-67
2021/12/05 04:00:35;;;;;;;32.60;19.02;;;;;;;-0.64;61.86;100105.53;1671201;84;21208;-68
2021/12/05 04:03:04;;;;;;;27.60;17.45;;;;;;;-0.67;62.00;100103.80;1642752;87;21955;-67
2021/12/05 04:05:31;;;;;;;30.43;17.67;;;;;;;-0.74;62.13;100102.46;1671297;85;21121;-66
2021/12/05 04:08:02;;;;;;;31.52;18.07;;;;;;;-0.84;62.33;100103.31;1687895;85;21083;-68
2021/12/05 04:10:30;;;;;;;31.15;18.57;;;;;;;-0.96;62.62;100097.80;1642777;86;21229;-68
2021/12/05 04:12:57;;;;;;;30.00;18.95;;;;;;;-1.01;62.93;100098.38;1642685;86;21061;-68
2021/12/05 04:15:24;;;;;;;33.18;19.42;;;;;;;-1.08;63.10;100090.17;1642583;87;21951;-68
2021/12/05 04:17:52;;;;;;;29.25;18.32;;;;;;;-1.09;63.27;100085.41;1688108;85;20980;-68
2021/12/05 04:20:20;;;;;;;30.32;19.40;;;;;;;-1.10;63.40;100078.56;1671014;84;21081;-68
2021/12/05 04:22:49;;;;;;;32.20;19.25;;;;;;;-1.09;63.52;100084.61;1671248;85;21022;-68
2021/12/05 04:25:17;;;;;;;31.50;18.60;;;;;;;-1.03;63.62;100095.64;1671251;85;21006;-68
2021/12/05 04:27:46;;;;;;;32.75;18.80;;;;;;;-0.96;63.63;100095.97;1686964;83;21174;-67
2021/12/05 04:30:17;;;;;;;30.82;18.82;;;;;;;-0.90;63.69;100102.27;1681540;84;21007;-67
2021/12/05 04:32:46;;;;;;;29.67;18.98;;;;;;;-0.83;63.73;100106.23;1699451;84;21549;-68
2021/12/05 04:35:12;;;;;;;31.42;19.70;;;;;;;-0.79;63.80;100110.92;1698939;84;21047;-68
2021/12/05 04:37:39;;;;;;;32.08;19.02;;;;;;;-0.71;63.77;100121.74;1699324;84;21003;-67
2021/12/05 04:40:09;;;;;;;29.10;18.73;;;;;;;-0.65;63.83;100129.34;1699209;84;21137;-67
2021/12/05 04:42:37;;;;;;;32.15;19.65;;;;;;;-0.61;63.86;100131.88;1699464;84;20995;-68
2021/12/05 04:45:09;;;;;;;32.40;19.20;;;;;;;-0.56;63.92;100132.92;1699457;84;20972;-68
2021/12/05 04:47:38;;;;;;;29.32;18.50;;;;;;;-0.52;63.97;100124.97;1699216;84;21023;-68
2021/12/05 04:50:08;;;;;;;33.75;19.77;;;;;;;-0.50;63.98;100129.50;1699452;84;21110;-68
2021/12/05 04:52:35;;;;;;;32.15;19.00;;;;;;;-0.48;63.98;100125.39;1699679;84;21162;-69
2021/12/05 04:55:04;;;;;;;30.80;18.98;;;;;;;-0.47;64.01;100130.42;1699354;84;21126;-68
2021/12/05 04:57:31;;;;;;;27.87;17.52;;;;;;;-0.44;64.03;100141.55;1699160;84;21014;-69
2021/12/05 04:59:57;;;;;;;30.55;19.15;;;;;;;-0.39;63.99;100142.59;1675489;84;21202;-68
2021/12/05 05:02:25;;;;;;;28.65;18.52;;;;;;;-0.34;63.95;100142.80;1671305;85;21433;-67
2021/12/05 05:04:53;;;;;;;29.57;18.52;;;;;;;-0.31;63.91;100145.03;1671421;85;21551;-68
2021/12/05 05:07:26;;;;;;;28.20;17.62;;;;;;;-0.28;63.83;100145.95;1671155;85;21515;-68
2021/12/05 05:09:58;;;;;;;30.45;19.15;;;;;;;-0.24;63.54;100143.23;1671224;85;21059;-68
2021/12/05 05:12:24;;;;;;;30.12;17.75;;;;;;;-0.24;63.54;100143.23;1671183;85;27041;-69
2021/12/05 05:14:53;;;;;;;28.92;18.17;;;;;;;-0.22;63.63;100146.19;1671331;85;21076;-70
2021/12/05 05:17:20;;;;;;;29.67;18.57;;;;;;;-0.26;63.54;100154.45;1670986;85;21535;-68
2021/12/05 05:19:54;;;;;;;30.27;18.55;;;;;;;-0.28;63.53;100155.64;1671105;85;20949;-68
2021/12/05 05:22:34;;;;;;;30.17;18.92;;;;;;;-0.28;63.47;100155.64;1670794;85;21102;-68
2021/12/05 05:51:05;;;;;;;54.60;24.15;;;;;;;-1.14;63.03;100144.66;1699443;84;21105;-68
2021/12/05 05:53:31;;;;;;;44.03;21.57;;;;;;;-1.28;63.14;100164.72;1686889;84;21083;-67
2021/12/05 05:55:58;;;;;;;49.30;22.80;;;;;;;-1.35;63.23;100165.97;1671312;85;21123;-68
2021/12/05 05:58:37;;;;;;;46.98;21.57;;;;;;;-1.35;63.33;100167.28;1671058;85;20992;-67
2021/12/05 06:01:04;;;;;;;45.45;21.68;;;;;;;-1.30;63.30;100170.63;1669726;84;21015;-68
2021/12/05 06:03:31;;;;;;;45.40;20.55;;;;;;;-1.23;63.27;100179.36;1669547;86;21660;-68
2021/12/05 06:06:01;;;;;;;37.23;20.08;;;;;;;-1.16;63.31;100172.86;1669754;86;21035;-68
2021/12/05 06:08:30;;;;;;;33.30;18.98;;;;;;;-1.07;63.27;100158.63;1669455;86;21159;-67
2021/12/05 06:11:02;;;;;;;34.03;20.02;;;;;;;-1.02;63.27;100168.02;1669831;86;21153;-68
2021/12/05 06:13:30;;;;;;;33.48;18.95;;;;;;;-0.96;63.29;100176.44;1669994;86;21118;-69
2021/12/05 06:15:58;;;;;;;29.15;18.32;;;;;;;-0.90;63.37;100183.54;1669742;85;21053;-68
2021/12/05 06:18:26;;;;;;;33.20;20.05;;;;;;;-0.83;63.47;100178.34;1671113;85;20984;-67
2021/12/05 06:20:53;;;;;;;32.50;19.73;;;;;;;-0.76;63.50;100176.09;1670264;85;21151;-68
2021/12/05 06:23:20;;;;;;;34.18;20.82;;;;;;;-0.66;63.57;100176.23;1670051;85;21605;-68
2021/12/05 06:25:49;;;;;;;32.83;20.05;;;;;;;-0.61;63.60;100177.28;1671216;85;21029;-67
2021/12/05 06:28:19;;;;;;;34.27;20.90;;;;;;;-0.55;63.76;100167.33;1670842;84;21022;-67
2021/12/05 06:30:53;;;;;;;31.65;19.65;;;;;;;-0.47;63.83;100172.41;1671184;85;21082;-67
2021/12/05 06:39:20;;;;;;;31.42;20.23;;;;;;;-0.35;64.08;100179.23;1643934;87;21041;-71
2021/12/05 06:46:30;;;;;;;32.13;20.75;;;;;;;-0.16;64.27;100182.97;1670889;85;21181;-69
2021/12/05 06:48:52;;;;;;;34.85;21.95;;;;;;;-0.13;64.16;100184.36;1669484;85;21020;-68
2021/12/05 06:51:24;;;;;;;33.35;20.60;;;;;;;-0.03;64.36;100181.70;1671167;85;21051;-68
2021/12/05 06:53:51;;;;;;;31.12;19.40;;;;;;;-0.03;64.36;100181.70;1671218;85;21096;-69
2021/12/05 06:56:18;;;;;;;31.82;20.37;;;;;;;0.04;64.21;100193.54;1671197;85;21143;-69
2021/12/05 06:58:44;;;;;;;34.10;21.48;;;;;;;0.03;64.21;100192.41;1690846;84;21131;-69
2021/12/05 07:01:11;;;;;;;37.58;22.00;;;;;;;0.04;64.30;100191.42;1699328;83;21085;-68
2021/12/05 07:03:41;;;;;;;37.50;22.35;;;;;;;0.07;64.51;100192.34;1684413;84;21479;-68
2021/12/05 07:06:11;;;;;;;31.87;20.57;;;;;;;0.07;64.51;100192.34;1671217;85;21068;-69
2021/12/05 07:08:40;;;;;;;33.95;21.50;;;;;;;0.11;64.61;100194.88;1671155;85;21000;-68
2021/12/05 07:11:20;;;;;;;36.90;22.90;;;;;;;0.15;64.62;100187.70;1671290;85;22085;-69
2021/12/05 07:14:22;;;;;;;34.53;22.32;;;;;;;0.30;64.70;100190.19;1669578;85;21424;-68
2021/12/05 07:16:38;;;;;;;34.63;22.50;;;;;;;0.30;64.70;100190.19;1667627;85;21059;-68
2021/12/05 07:21:36;;;;;;;39.25;23.40;;;;;;;0.51;64.70;100194.45;1671338;85;21135;-69
2021/12/05 07:40:28;;;;;;;35.90;23.27;;;;;;;1.40;64.47;100211.66;1671308;85;21112;-67
2021/12/05 07:43:00;;;;;;;33.45;21.27;;;;;;;1.50;64.49;100208.09;1671193;85;21038;-68
2021/12/05 07:45:45;;;;;;;37.00;22.93;;;;;;;1.59;64.41;100208.69;1670745;85;20979;-68
2021/12/05 07:48:19;;;;;;;31.80;20.75;;;;;;;1.61;64.38;100210.11;1670398;85;21015;-69
2021/12/05 07:51:09;;;;;;;34.25;21.95;;;;;;;1.69;64.32;100209.58;1672776;85;21100;-68
2021/12/05 07:53:45;;;;;;;34.40;21.70;;;;;;;1.67;64.30;100205.81;1651989;85;21022;-68
2021/12/05 07:56:14;;;;;;;34.60;22.67;;;;;;;1.67;64.31;100216.34;1671285;85;21648;-67
2021/12/05 07:58:56;;;;;;;36.40;22.75;;;;;;;1.72;64.43;100219.19;1688489;85;20986;-68
2021/12/05 08:14:59;;;;;;;35.40;22.13;;;;;;;2.21;64.39;100235.42;1642727;86;21046;-68
2021/12/05 08:17:21;;;;;;;33.67;19.98;;;;;;;2.30;64.46;100234.14;1642446;86;21167;-68
2021/12/05 08:19:47;;;;;;;33.48;21.60;;;;;;;2.40;64.41;100229.22;1642595;86;21014;-70
2021/12/05 08:22:15;;;;;;;32.88;22.25;;;;;;;2.44;64.40;100225.16;1642324;86;21068;-68
2021/12/05 08:24:45;;;;;;;32.88;20.82;;;;;;;2.55;64.45;100225.00;1642573;87;20999;-68
2021/12/05 08:27:13;;;;;;;35.30;22.62;;;;;;;2.64;64.41;100230.31;1656927;86;21081;-69
2021/12/05 08:29:47;;;;;;;31.25;19.52;;;;;;;2.67;64.37;100219.34;1705319;83;21142;-67
2021/12/05 08:32:22;;;;;;;34.78;20.92;;;;;;;2.78;64.37;100216.53;1642859;87;21060;-69
2021/12/05 08:34:52;;;;;;;31.25;19.02;;;;;;;2.87;64.29;100215.25;1642683;87;21500;-68
2021/12/05 09:31:02;;;;;;;27.25;18.35;;;;;;;4.20;60.24;100172.40;1671358;85;21466;-69
2021/12/05 10:09:06;;;;;;;26.45;17.00;;;;;;;5.48;56.76;100165.38;1670322;85;21086;-68
2021/12/05 10:11:46;;;;;;;25.75;16.77;;;;;;;5.52;56.34;100166.52;1671022;85;21066;-69
2021/12/05 10:17:04;;;;;;;23.98;15.93;;;;;;;5.53;56.09;100171.59;1670964;85;21163;-70
2021/12/05 10:36:05;;;;;;;22.35;15.05;;;;;;;5.80;54.87;100190.42;1670319;85;21032;-68
2021/12/05 10:38:43;;;;;;;20.90;13.10;;;;;;;5.85;54.77;100194.48;1669594;85;21569;-69
2021/12/05 10:43:43;;;;;;;25.02;16.32;;;;;;;5.93;54.37;100193.36;1670243;85;21831;-68
2021/12/05 10:46:13;;;;;;;23.95;15.70;;;;;;;5.99;54.22;100198.23;1670288;85;21058;-69
2021/12/05 10:48:55;;;;;;;26.62;17.17;;;;;;;6.06;53.96;100201.05;1671133;85;21102;-69
2021/12/05 10:51:27;;;;;;;25.68;15.70;;;;;;;6.11;53.68;100205.63;1671384;85;21149;-69
2021/12/05 10:54:09;;;;;;;24.00;15.28;;;;;;;6.14;53.53;100201.71;1669890;85;21064;-68
2021/12/05 10:56:47;;;;;;;23.38;16.23;;;;;;;6.15;53.15;100205.44;1670617;85;21126;-68
2021/12/05 10:59:20;;;;;;;27.02;17.37;;;;;;;6.20;52.95;100209.53;1670378;85;20996;-69
2021/12/05 11:01:55;;;;;;;26.62;16.73;;;;;;;6.21;52.79;100203.17;1670667;85;22069;-69
2021/12/05 11:04:27;;;;;;;28.75;18.37;;;;;;;6.19;52.75;100196.52;1671050;85;21080;-68
2021/12/05 11:07:12;;;;;;;21.20;13.62;;;;;;;6.18;52.75;100195.69;1671241;85;21021;-69
2021/12/05 11:09:48;;;;;;;28.02;17.15;;;;;;;6.21;52.83;100193.09;1671115;85;21213;-69
2021/12/05 11:12:33;;;;;;;29.55;18.50;;;;;;;6.14;52.30;100187.92;1671298;85;21573;-69
2021/12/05 11:15:06;;;;;;;28.12;17.02;;;;;;;6.05;52.17;100176.88;1671112;85;21504;-69
2021/12/05 11:17:37;;;;;;;30.00;18.30;;;;;;;6.00;52.07;100183.95;1671389;85;21076;-68
2021/12/05 11:20:17;;;;;;;29.55;18.10;;;;;;;5.86;52.27;100177.56;1671308;85;21024;-68
2021/12/05 11:22:48;;;;;;;27.13;17.23;;;;;;;5.72;52.29;100172.22;1670652;85;21187;-68
2021/12/05 11:25:18;;;;;;;29.80;17.60;;;;;;;5.59;52.32;100161.89;1671200;84;20974;-69
2021/12/05 11:27:54;;;;;;;25.97;17.15;;;;;;;5.49;52.46;100163.80;1671555;85;21502;-68
2021/12/05 11:30:33;;;;;;;26.12;16.90;;;;;;;5.39;52.61;100165.71;1671316;85;21562;-69
2021/12/05 11:33:07;;;;;;;29.12;18.80;;;;;;;5.30;52.81;100169.77;1670085;85;21604;-69
2021/12/05 11:35:39;;;;;;;29.57;18.17;;;;;;;5.23;52.87;100173.56;1670502;85;21186;-69
2021/12/05 11:38:20;;;;;;;29.48;18.48;;;;;;;5.18;53.07;100172.41;1671262;85;21535;-69
2021/12/05 11:41:02;;;;;;;29.48;18.27;;;;;;;5.16;53.24;100167.05;1669527;84;21572;-68
2021/12/05 11:43:41;;;;;;;31.12;19.48;;;;;;;5.14;53.38;100165.17;1689210;83;21640;-68
2021/12/05 11:46:17;;;;;;;32.00;20.05;;;;;;;5.13;53.44;100170.16;1692117;83;21074;-68
2021/12/05 11:48:54;;;;;;;34.65;20.62;;;;;;;5.08;53.42;100167.41;1555504;84;9999707;-69
2021/12/05 11:51:40;;;;;;;30.95;18.90;;;;;;;5.03;53.48;100167.28;1682537;84;21588;-69
2021/12/05 11:54:14;;;;;;;32.58;19.80;;;;;;;4.97;53.57;100180.11;1667675;84;21106;-69
2021/12/05 11:56:53;;;;;;;35.08;21.57;;;;;;;4.78;53.71;100175.45;1686808;84;21019;-69
2021/12/05 11:59:33;;;;;;;34.27;21.48;;;;;;;4.66;53.98;100176.22;1670518;84;22013;-69
2021/12/05 12:02:20;;;;;;;36.53;21.77;;;;;;;4.65;54.12;100175.13;1675184;84;21542;-69
2021/12/05 12:05:07;;;;;;;35.40;21.82;;;;;;;4.66;54.21;100181.50;1653968;85;21160;-69
2021/12/05 12:07:51;;;;;;;32.55;20.45;;;;;;;4.68;54.21;100179.97;1668805;85;21023;-69
2021/12/05 12:10:29;;;;;;;34.75;21.87;;;;;;;4.69;54.26;100174.96;1666562;84;21540;-68
2021/12/05 12:13:06;;;;;;;33.08;21.68;;;;;;;4.66;54.23;100176.73;1662197;84;21668;-68
2021/12/05 12:15:33;;;;;;;36.15;21.57;;;;;;;4.64;54.22;100180.94;1666481;85;21078;-69
2021/12/05 12:18:09;;;;;;;39.13;23.18;;;;;;;4.62;54.25;100190.94;1687840;84;21129;-70
2021/12/05 12:20:33;;;;;;;37.70;23.85;;;;;;;4.59;54.38;100194.55;1673304;84;21601;-69
2021/12/05 12:23:00;;;;;;;39.10;23.52;;;;;;;4.55;54.56;100192.87;1672204;84;22307;-70
2021/12/05 12:25:31;;;;;;;40.63;24.80;;;;;;;4.49;54.60;100192.97;1656447;84;21222;-69
2021/12/05 12:28:00;;;;;;;41.25;24.37;;;;;;;4.42;54.71;100194.39;1684919;84;21541;-69
2021/12/05 12:30:29;;;;;;;42.65;25.97;;;;;;;4.33;54.90;100190.44;1655470;85;21129;-68
2021/12/05 12:33:15;;;;;;;41.85;25.92;;;;;;;4.24;55.11;100192.58;1668874;84;21073;-69
2021/12/05 12:35:45;;;;;;;43.50;26.87;;;;;;;4.22;55.24;100199.95;1659675;85;21089;-69
2021/12/05 12:38:18;;;;;;;37.80;24.40;;;;;;;4.13;55.30;100203.41;1658060;85;21150;-69
2021/12/05 12:40:50;;;;;;;41.00;25.95;;;;;;;4.05;55.47;100201.09;1649661;85;21060;-69
2021/12/05 12:43:42;;;;;;;44.40;25.95;;;;;;;3.96;55.58;100199.25;1657628;84;21533;-70
2021/12/05 12:46:23;;;;;;;44.18;25.20;;;;;;;3.91;55.75;100208.86;1670112;84;21500;-70
2021/12/05 12:49:16;;;;;;;38.85;24.50;;;;;;;3.81;55.89;100209.38;1650395;85;21149;-69
2021/12/05 12:51:57;;;;;;;43.35;25.68;;;;;;;3.67;56.04;100200.80;1679673;85;21183;-70
2021/12/05 12:54:59;;;;;;;37.23;23.57;;;;;;;3.48;56.30;100207.09;1659702;84;21081;-69
2021/12/05 12:57:29;;;;;;;41.60;24.80;;;;;;;3.32;56.54;100202.38;1658437;85;21535;-70
2021/12/05 13:00:03;;;;;;;39.95;25.12;;;;;;;3.13;56.91;100198.40;1647108;85;21086;-69
2021/12/05 13:02:52;;;;;;;34.88;21.25;;;;;;;3.03;57.16;100193.61;1655041;85;21061;-70
2021/12/05 13:05:24;;;;;;;38.50;23.55;;;;;;;2.95;57.46;100210.21;1678392;85;21179;-70
2021/12/05 13:10:42;;;;;;;36.65;22.22;;;;;;;2.79;57.88;100211.55;1662997;85;21109;-68
2021/12/05 13:13:23;;;;;;;37.50;23.12;;;;;;;2.76;58.07;100212.80;1668247;84;21042;-70
2021/12/05 13:15:57;;;;;;;36.25;22.93;;;;;;;2.68;58.29;100213.05;1675661;84;21654;-69
2021/12/05 13:18:33;;;;;;;36.83;22.58;;;;;;;2.62;58.49;100206.50;1686175;83;21129;-69
2021/12/05 13:21:10;;;;;;;36.53;21.95;;;;;;;2.59;58.64;100211.68;1650544;85;21628;-69
2021/12/05 13:23:45;;;;;;;37.50;22.02;;;;;;;2.59;58.72;100207.72;1685058;83;21090;-69
2021/12/05 13:26:39;;;;;;;39.03;23.20;;;;;;;2.61;58.78;100214.12;1668413;84;21167;-68
2021/12/05 13:29:23;;;;;;;36.88;22.40;;;;;;;2.59;58.87;100213.80;1648883;85;21537;-70
2021/12/05 13:31:57;;;;;;;39.27;23.80;;;;;;;2.59;59.00;100215.12;1672502;84;21104;-69
2021/12/05 13:34:36;;;;;;;39.15;23.22;;;;;;;2.58;59.07;100214.03;1656311;85;21073;-69
2021/12/05 13:37:16;;;;;;;39.08;22.77;;;;;;;2.57;59.18;100219.02;1678570;84;21184;-70
2021/12/05 13:39:54;;;;;;;37.20;22.55;;;;;;;2.58;59.26;100219.30;1667492;85;21093;-69
2021/12/05 13:42:41;;;;;;;40.80;24.27;;;;;;;2.58;59.33;100225.38;1670073;85;21141;-69
2021/12/05 13:45:12;;;;;;;38.13;24.02;;;;;;;2.58;59.39;100226.69;1666566;84;21347;-70
2021/12/05 13:47:56;;;;;;;38.05;22.67;;;;;;;2.56;59.43;100223.45;1652841;85;21132;-68
2021/12/05 13:50:30;;;;;;;37.23;23.00;;;;;;;2.55;59.53;100227.12;1664043;84;21042;-69
2021/12/05 13:53:05;;;;;;;36.17;22.25;;;;;;;2.54;59.62;100232.09;1658528;84;21053;-70
2021/12/05 13:56:03;;;;;;;37.23;22.60;;;;;;;2.54;59.68;100232.62;1649776;85;21125;-71
2021/12/05 13:58:40;;;;;;;37.30;22.62;;;;;;;2.53;59.72;100244.16;1664942;85;22201;-69
2021/12/05 14:01:34;;;;;;;39.27;23.98;;;;;;;2.51;59.79;100243.06;1654281;85;21113;-69
2021/12/05 14:04:24;;;;;;;37.08;22.85;;;;;;;2.54;59.82;100249.23;1640910;87;21100;-69
2021/12/05 14:07:04;;;;;;;38.23;22.02;;;;;;;2.55;59.81;100245.58;1659827;84;21121;-70
2021/12/05 14:09:47;;;;;;;39.18;22.25;;;;;;;2.55;59.81;100254.00;1657453;84;21070;-68
2021/12/05 14:12:24;;;;;;;37.73;23.12;;;;;;;2.54;59.87;100247.12;1685032;83;21109;-68
2021/12/05 14:15:07;;;;;;;38.55;23.00;;;;;;;2.48;59.83;100248.76;1668578;84;21157;-69
2021/12/05 14:17:39;;;;;;;36.10;22.80;;;;;;;2.42;59.98;100250.91;1669816;84;21093;-69
2021/12/05 14:20:12;;;;;;;39.33;22.52;;;;;;;2.43;60.04;100261.75;1671905;84;21050;-68
2021/12/05 14:22:40;;;;;;;38.13;23.07;;;;;;;2.42;60.11;100255.39;1686564;83;21149;-69
2021/12/05 14:25:12;;;;;;;36.85;21.33;;;;;;;2.41;60.09;100253.27;1639211;86;21862;-69
2021/12/05 14:27:43;;;;;;;37.70;21.62;;;;;;;2.41;60.07;100253.27;1673670;85;21688;-68
2021/12/05 14:30:15;;;;;;;38.80;22.07;;;;;;;2.40;60.02;100258.22;1642985;87;21212;-68
2021/12/05 14:32:44;;;;;;;38.65;23.05;;;;;;;2.39;60.00;100259.24;1687147;85;21306;-69
2021/12/05 14:35:15;;;;;;;35.55;22.05;;;;;;;2.37;59.96;100266.57;1687654;85;21226;-70
2021/12/05 14:37:44;;;;;;;37.98;22.90;;;;;;;2.37;59.97;100261.78;1687250;85;21531;-69
2021/12/05 14:40:20;;;;;;;35.92;22.40;;;;;;;2.31;60.01;100266.09;1687510;83;21685;-70
2021/12/05 14:42:50;;;;;;;40.43;23.98;;;;;;;2.29;59.94;100265.48;1636551;87;21092;-69
2021/12/05 14:45:21;;;;;;;38.53;23.40;;;;;;;2.23;60.00;100273.70;1643042;85;21045;-69
2021/12/05 14:47:49;;;;;;;37.42;23.90;;;;;;;2.24;60.05;100271.90;1633922;86;21023;-69
2021/12/05 14:50:21;;;;;;;42.60;23.90;;;;;;;2.22;60.06;100280.00;1672991;84;21136;-70
2021/12/05 14:52:53;;;;;;;40.17;23.62;;;;;;;2.20;60.09;100279.90;1687193;84;21034;-69
2021/12/05 14:55:20;;;;;;;39.23;22.48;;;;;;;2.22;60.05;100287.09;1670385;84;21048;-70
2021/12/05 14:57:52;;;;;;;37.28;24.02;;;;;;;2.21;60.06;100290.25;1670796;85;21055;-69
2021/12/05 15:00:24;;;;;;;40.15;24.15;;;;;;;2.19;60.04;100295.42;1671304;85;20984;-70
2021/12/05 15:03:07;;;;;;;39.88;23.10;;;;;;;2.17;60.07;100293.48;1670734;85;21668;-69
2021/12/05 15:05:36;;;;;;;40.98;24.25;;;;;;;2.17;60.06;100300.08;1671096;85;21531;-69
2021/12/05 15:08:07;;;;;;;41.15;24.50;;;;;;;2.08;59.92;100300.83;1670853;85;21564;-69
2021/12/05 15:10:35;;;;;;;41.05;23.98;;;;;;;2.01;59.97;100295.58;1670549;84;21087;-69
2021/12/05 15:13:01;;;;;;;38.48;24.35;;;;;;;1.99;59.99;100301.55;1670460;85;21047;-69
2021/12/05 15:15:28;;;;;;;41.10;24.02;;;;;;;1.95;59.97;100305.63;1670980;84;21176;-68
2021/12/05 15:17:56;;;;;;;42.13;24.05;;;;;;;1.91;60.03;100308.86;1670280;85;21008;-69
2021/12/05 15:20:28;;;;;;;39.25;23.75;;;;;;;1.87;60.10;100321.63;1671110;85;21058;-70
2021/12/05 15:23:01;;;;;;;39.73;24.00;;;;;;;1.83;60.16;100313.84;1671107;85;21039;-69
2021/12/05 15:25:28;;;;;;;36.23;21.02;;;;;;;1.79;60.26;100321.86;1649325;85;21193;-70
2021/12/05 15:27:55;;;;;;;38.67;23.60;;;;;;;1.80;60.33;100330.86;1671296;85;21146;-70
2021/12/05 15:30:31;;;;;;;39.35;23.98;;;;;;;1.77;60.36;100329.95;1671266;85;21018;-69
2021/12/05 15:33:05;;;;;;;41.50;25.40;;;;;;;1.78;60.42;100328.95;1671319;85;21526;-70
2021/12/05 15:35:32;;;;;;;43.38;25.48;;;;;;;1.78;60.50;100331.59;1671367;85;21590;-69
2021/12/05 15:38:04;;;;;;;39.05;24.12;;;;;;;1.79;60.57;100338.46;1671504;85;21018;-69
2021/12/05 15:40:33;;;;;;;37.63;23.32;;;;;;;1.82;60.56;100335.42;1671095;85;21256;-69
2021/12/05 15:43:05;;;;;;;40.08;23.50;;;;;;;1.84;60.47;100331.25;1671118;85;21053;-70
2021/12/05 15:45:33;;;;;;;42.55;25.85;;;;;;;1.83;60.40;100328.33;1671066;85;21568;-70
2021/12/05 15:47:59;;;;;;;39.98;23.47;;;;;;;1.80;60.39;100321.64;1671226;85;20983;-70
2021/12/05 16:03:24;;;;;;;38.10;22.42;;;;;;;1.71;60.25;100308.89;1675764;84;21074;-70
2021/12/05 16:05:57;;;;;;;39.25;22.42;;;;;;;1.63;60.15;100307.29;1660122;86;21074;-69
2021/12/05 16:08:29;;;;;;;36.03;20.40;;;;;;;1.61;60.11;100306.19;1668042;86;21521;-70
2021/12/05 16:10:59;;;;;;;;;;;;;;;1.60;60.10;100306.38;1672528;86;21781;-69
2021/12/05 16:13:38;;;;;;;36.38;22.13;;;;;;;1.54;60.10;100309.31;1669712;86;20150;-70
2021/12/05 16:16:12;;;;;;;39.35;22.60;;;;;;;1.47;60.13;100305.88;1669565;84;21047;-69
2021/12/05 16:18:42;;;;;;;42.35;23.35;;;;;;;1.36;60.26;100302.55;1669002;86;21442;-70
2021/12/05 16:21:29;;;;;;;40.43;22.32;;;;;;;1.30;60.38;100302.84;1634995;87;21075;-69
2021/12/05 16:24:06;;;;;;;38.08;20.30;;;;;;;1.26;60.55;100302.15;1664663;85;21079;-69
2021/12/05 16:26:34;;;;;;;38.80;22.93;;;;;;;1.24;60.69;100305.47;1668676;85;21094;-70
2021/12/05 16:29:07;;;;;;;36.65;22.73;;;;;;;1.19;60.82;100304.78;1670983;85;21026;-70
2021/12/05 16:31:44;;;;;;;33.65;19.90;;;;;;;1.25;60.92;100305.77;1671215;85;21050;-71
2021/12/05 16:34:24;;;;;;;39.03;23.05;;;;;;;1.30;60.92;100305.98;1671167;85;21078;-71
2021/12/05 16:36:58;;;;;;;36.53;21.93;;;;;;;1.30;60.96;100305.98;1671052;85;21180;-71
2021/12/05 16:39:39;;;;;;;37.35;21.95;;;;;;;1.33;60.99;100313.48;1671303;85;21533;-70
2021/12/05 16:42:11;;;;;;;33.63;20.75;;;;;;;1.36;60.98;100300.72;1671208;85;21117;-69
2021/12/05 16:44:40;;;;;;;36.68;22.02;;;;;;;1.40;60.98;100303.76;1671444;85;21564;-69
2021/12/05 16:47:16;;;;;;;29.40;17.35;;;;;;;1.43;60.89;100299.92;1670953;85;21082;-70
2021/12/05 16:49:49;;;;;;;36.17;20.48;;;;;;;1.43;60.90;100301.23;1671169;85;21164;-69